createdAt,value
2022-12-19T00:02:40.361Z,-6.48
2022-12-19T00:06:44.100Z,-6.44
2022-12-19T00:10:55.655Z,-6.53
2022-12-19T00:14:57.216Z,-6.53
2022-12-19T00:19:01.442Z,-6.41
2022-12-19T00:23:03.128Z,-6.38
2022-12-19T00:27:04.569Z,-6.31
2022-12-19T00:31:06.383Z,-6.32
2022-12-19T00:35:08.166Z,-6.32
2022-12-19T00:39:11.546Z,-6.21
2022-12-19T00:43:12.968Z,-6.23
2022-12-19T00:47:14.444Z,-6.20
2022-12-19T00:51:25.269Z,-6.24
2022-12-19T00:55:26.806Z,-6.19
2022-12-19T00:59:28.378Z,-6.22
2022-12-19T01:03:29.813Z,-6.10
2022-12-19T01:07:31.328Z,-6.11
2022-12-19T01:11:51.570Z,-6.03
2022-12-19T01:15:52.957Z,-5.95
2022-12-19T01:19:54.371Z,-5.96
2022-12-19T01:23:55.855Z,-5.99
2022-12-19T01:27:57.577Z,-5.98
2022-12-19T01:31:59.089Z,-5.98
2022-12-19T01:36:07.516Z,-5.91
2022-12-19T01:40:11.581Z,-5.91
2022-12-19T01:44:13.031Z,-6.00
2022-12-19T01:48:20.537Z,-6.02
2022-12-19T01:52:23.851Z,-5.94
2022-12-19T01:56:33.000Z,-5.92
2022-12-19T02:00:34.559Z,-5.92
2022-12-19T02:04:36.750Z,-5.93
2022-12-19T02:08:39.778Z,-5.88
2022-12-19T02:12:43.287Z,-5.94
2022-12-19T02:16:59.260Z,-5.88
2022-12-19T02:21:15.441Z,-5.92
2022-12-19T02:25:58.955Z,-5.81
2022-12-19T02:30:10.411Z,-5.84
2022-12-19T02:34:51.854Z,-5.80
2022-12-19T02:39:05.204Z,-5.90
2022-12-19T02:43:12.420Z,-5.88
2022-12-19T02:47:15.118Z,-5.87
2022-12-19T02:51:16.894Z,-5.85
2022-12-19T02:55:23.758Z,-5.91
2022-12-19T02:59:57.994Z,-5.84
2022-12-19T03:04:29.613Z,-5.88
2022-12-19T03:08:39.815Z,-5.82
2022-12-19T03:12:51.373Z,-5.78
2022-12-19T03:16:53.158Z,-5.73
2022-12-19T03:21:04.204Z,-5.64
2022-12-19T03:25:06.142Z,-5.66
2022-12-19T03:29:32.350Z,-5.74
2022-12-19T03:33:35.124Z,-5.74
2022-12-19T03:37:40.538Z,-5.71
2022-12-19T03:42:03.218Z,-5.73
2022-12-19T03:46:22.223Z,-5.65
2022-12-19T03:50:27.647Z,-5.65
2022-12-19T03:54:34.867Z,-5.66
2022-12-19T03:58:40.579Z,-5.65
2022-12-19T04:02:48.265Z,-5.71
2022-12-19T04:06:50.924Z,-5.72
2022-12-19T04:10:58.545Z,-5.68
2022-12-19T04:15:00.185Z,-5.67
2022-12-19T04:19:11.973Z,-5.72
2022-12-19T04:23:25.019Z,-5.69
2022-12-19T04:27:28.237Z,-5.68
2022-12-19T04:31:30.953Z,-5.67
2022-12-19T04:35:33.779Z,-5.67
2022-12-19T04:39:35.282Z,-5.71
2022-12-19T04:43:36.801Z,-5.63
2022-12-19T04:47:38.312Z,-5.63
2022-12-19T04:51:39.805Z,-5.66
2022-12-19T04:55:41.336Z,-5.71
2022-12-19T04:59:42.787Z,-5.74
2022-12-19T05:03:44.333Z,-5.67
2022-12-19T05:07:47.022Z,-5.70
2022-12-19T05:11:48.575Z,-5.74
2022-12-19T05:15:57.910Z,-5.68
2022-12-19T05:19:59.379Z,-5.70
2022-12-19T05:24:00.890Z,-5.62
2022-12-19T05:28:02.362Z,-5.55
2022-12-19T05:32:03.824Z,-5.55
2022-12-19T05:36:06.220Z,-5.54
2022-12-19T05:40:08.344Z,-5.50
2022-12-19T05:44:10.251Z,-5.37
2022-12-19T05:48:11.725Z,-5.31
2022-12-19T05:52:13.173Z,-5.30
2022-12-19T05:56:20.429Z,-5.25
2022-12-19T06:00:22.064Z,-5.28
2022-12-19T06:04:23.519Z,-5.23
2022-12-19T06:08:24.953Z,-5.15
2022-12-19T06:12:26.632Z,-5.09
2022-12-19T06:16:28.153Z,-5.06
2022-12-19T06:20:29.627Z,-5.07
2022-12-19T06:24:31.087Z,-4.88
2022-12-19T06:28:33.562Z,-4.96
2022-12-19T06:32:38.193Z,-4.91
2022-12-19T06:36:39.923Z,-4.85
2022-12-19T06:41:03.093Z,-4.82
2022-12-19T06:45:04.830Z,-4.84
2022-12-19T06:49:06.496Z,-4.74
2022-12-19T06:53:07.933Z,-4.58
2022-12-19T06:57:09.531Z,-4.53
2022-12-19T07:01:23.747Z,-4.54
2022-12-19T07:05:26.472Z,-4.52
2022-12-19T07:09:29.433Z,-4.45
2022-12-19T07:13:30.956Z,-4.43
2022-12-19T07:17:33.430Z,-4.32
2022-12-19T07:21:35.234Z,-4.31
2022-12-19T07:25:39.011Z,-4.27
2022-12-19T07:29:40.479Z,-4.34
2022-12-19T07:33:43.056Z,-4.18
2022-12-19T07:37:44.595Z,-4.12
2022-12-19T07:41:46.244Z,-4.09
2022-12-19T07:45:54.860Z,-4.05
2022-12-19T07:49:56.449Z,-4.01
2022-12-19T07:53:57.958Z,-4.02
2022-12-19T07:57:59.762Z,-3.82
2022-12-19T08:02:01.423Z,-3.76
2022-12-19T08:06:04.983Z,-3.69
2022-12-19T08:10:06.982Z,-3.62
2022-12-19T08:14:08.467Z,-3.65
2022-12-19T08:18:09.938Z,-3.62
2022-12-19T08:22:12.046Z,-3.47
2022-12-19T08:26:16.587Z,-3.54
2022-12-19T08:30:18.834Z,-3.38
2022-12-19T08:34:20.340Z,-3.43
2022-12-19T08:38:21.939Z,-3.36
2022-12-19T08:42:23.383Z,-3.30
2022-12-19T08:46:25.146Z,-2.83
2022-12-19T08:50:26.775Z,-3.15
2022-12-19T08:54:28.294Z,-3.02
2022-12-19T08:58:30.496Z,-2.96
2022-12-19T09:02:32.226Z,-2.97
2022-12-19T09:06:34.157Z,-2.90
2022-12-19T09:10:37.555Z,-2.83
2022-12-19T09:14:39.066Z,-2.70
2022-12-19T09:18:48.093Z,-2.73
2022-12-19T09:22:50.028Z,-2.70
2022-12-19T09:26:51.544Z,-2.62
2022-12-19T09:30:58.120Z,-2.43
2022-12-19T09:34:59.627Z,-2.48
2022-12-19T09:39:01.148Z,-2.49
2022-12-19T09:43:25.374Z,-2.27
2022-12-19T09:47:30.988Z,-2.36
2022-12-19T09:51:34.453Z,-2.29
2022-12-19T09:55:40.663Z,-2.18
2022-12-19T10:00:00.097Z,-2.06
2022-12-19T10:04:20.404Z,-2.06
2022-12-19T10:08:33.485Z,-1.93
2022-12-19T10:12:57.080Z,-1.81
2022-12-19T10:17:24.455Z,-1.80
2022-12-19T10:22:16.835Z,-1.65
2022-12-19T10:26:11.095Z,-1.56
2022-12-19T10:30:18.804Z,-1.57
2022-12-19T10:34:23.021Z,-1.49
2022-12-19T10:38:34.011Z,-1.42
2022-12-19T10:42:58.472Z,-1.20
2022-12-19T10:47:04.484Z,-1.31
2022-12-19T10:51:13.508Z,-1.26
2022-12-19T10:55:38.060Z,-1.08
2022-12-19T10:59:39.555Z,-1.06
2022-12-19T11:03:49.942Z,-0.97
2022-12-19T11:08:15.623Z,-0.83
2022-12-19T11:15:45.803Z,-0.81
2022-12-19T11:23:33.136Z,-0.61
2022-12-19T11:29:31.695Z,-0.52
2022-12-19T11:30:39.549Z,-0.55
2022-12-19T11:34:37.073Z,-0.63
2022-12-19T11:38:45.379Z,-0.65
2022-12-19T11:47:43.022Z,-0.69
2022-12-19T11:52:04.544Z,-0.66
2022-12-19T11:56:16.120Z,-0.69
2022-12-19T12:00:24.423Z,-0.68
2022-12-19T12:04:38.070Z,-0.54
2022-12-19T12:11:42.603Z,-0.55
2022-12-19T12:24:40.359Z,-0.54
2022-12-19T12:31:01.843Z,-0.41
2022-12-19T12:31:40.356Z,-0.46
2022-12-19T12:32:01.911Z,-0.43
2022-12-19T12:35:30.367Z,-0.40
2022-12-19T12:42:29.550Z,-0.32
2022-12-19T12:46:52.241Z,-0.38
2022-12-19T12:50:55.520Z,-0.39
2022-12-19T12:54:58.453Z,-0.47
2022-12-19T12:59:26.993Z,-0.43
2022-12-19T13:03:29.631Z,-0.40
2022-12-19T13:07:43.097Z,-0.41
2022-12-19T13:12:16.554Z,-0.36
2022-12-19T13:16:45.784Z,-0.35
2022-12-19T13:20:48.460Z,-0.42
2022-12-19T13:24:52.912Z,-0.35
2022-12-19T13:28:54.367Z,-0.33
2022-12-19T13:32:55.761Z,-0.37
2022-12-19T13:39:49.812Z,-0.33
2022-12-19T13:42:06.532Z,-0.33
2022-12-19T13:46:26.849Z,-0.29
2022-12-19T13:50:30.977Z,-0.20
2022-12-19T13:54:46.490Z,-0.20
2022-12-19T13:59:01.326Z,-0.18
2022-12-19T14:03:03.046Z,-0.12
2022-12-19T14:07:37.476Z,-0.10
2022-12-19T14:12:25.975Z,-0.05
2022-12-19T14:16:05.514Z,0.04
2022-12-19T14:22:06.140Z,0.04
2022-12-19T14:27:08.264Z,0.10
2022-12-19T14:29:56.214Z,0.12
2022-12-19T14:34:18.496Z,0.13
2022-12-19T14:39:19.600Z,0.18
2022-12-19T14:43:59.737Z,0.24
2022-12-19T14:52:34.788Z,0.25
2022-12-19T14:54:49.390Z,0.32
2022-12-19T14:57:02.396Z,0.34
2022-12-19T15:01:22.995Z,0.35
2022-12-19T15:05:25.698Z,0.40
2022-12-19T15:11:07.602Z,0.49
2022-12-19T15:14:58.582Z,0.54
2022-12-19T15:18:37.155Z,0.53
2022-12-19T15:22:38.643Z,0.55
2022-12-19T15:26:47.838Z,0.55
2022-12-19T15:30:58.149Z,0.60
2022-12-19T15:34:59.605Z,0.70
2022-12-19T15:39:01.131Z,0.72
2022-12-19T15:43:04.480Z,0.75
2022-12-19T15:47:14.210Z,0.77
2022-12-19T15:51:18.981Z,0.76
2022-12-19T15:55:24.048Z,0.88
2022-12-19T15:59:38.054Z,0.89
2022-12-19T16:03:40.210Z,0.92
2022-12-19T16:07:42.219Z,0.99
2022-12-19T16:11:44.450Z,1.03
2022-12-19T16:15:46.828Z,1.12
2022-12-19T16:19:48.792Z,1.09
2022-12-19T16:23:50.769Z,1.18
2022-12-19T16:27:56.949Z,1.27
2022-12-19T16:32:00.538Z,1.37
2022-12-19T16:36:05.167Z,1.37
2022-12-19T16:40:20.222Z,1.55
2022-12-19T16:44:23.646Z,1.68
2022-12-19T16:48:27.418Z,1.92
2022-12-19T16:52:28.869Z,1.81
2022-12-19T16:56:34.280Z,1.99
2022-12-19T17:00:37.756Z,2.13
2022-12-19T17:04:42.697Z,2.14
2022-12-19T17:08:44.898Z,2.20
2022-12-19T17:12:46.971Z,2.25
2022-12-19T17:16:48.981Z,2.21
2022-12-19T17:20:50.620Z,2.03
2022-12-19T17:24:52.104Z,2.09
2022-12-19T17:28:53.693Z,2.04
2022-12-19T17:32:55.941Z,2.10
2022-12-19T17:37:03.563Z,2.16
2022-12-19T17:41:05.185Z,2.24
2022-12-19T17:45:07.073Z,2.21
2022-12-19T17:49:23.741Z,2.30
2022-12-19T17:53:25.973Z,2.24
2022-12-19T17:57:27.496Z,2.34
2022-12-19T18:01:29.630Z,2.42
2022-12-19T18:05:36.024Z,2.41
2022-12-19T18:09:37.647Z,2.39
2022-12-19T18:13:39.125Z,2.50
2022-12-19T18:17:41.316Z,2.49
2022-12-19T18:21:42.849Z,2.48
2022-12-19T18:25:45.466Z,2.49
2022-12-19T18:29:46.948Z,2.54
2022-12-19T18:33:49.172Z,2.74
2022-12-19T18:37:52.041Z,2.55
2022-12-19T18:41:54.190Z,2.66
2022-12-19T18:45:55.788Z,2.60
2022-12-19T18:49:57.417Z,2.77
2022-12-19T18:53:58.885Z,2.72
2022-12-19T18:58:00.356Z,2.71
2022-12-19T19:02:02.148Z,2.76
2022-12-19T19:06:06.367Z,2.78
2022-12-19T19:10:27.991Z,2.78
2022-12-19T19:14:29.653Z,2.89
2022-12-19T19:18:40.119Z,2.92
2022-12-19T19:22:41.716Z,2.90
2022-12-19T19:26:43.274Z,2.92
2022-12-19T19:30:45.222Z,2.84
2022-12-19T19:34:46.981Z,2.86
2022-12-19T19:38:53.008Z,2.88
2022-12-19T19:42:54.516Z,2.92
2022-12-19T19:46:56.404Z,2.87
2022-12-19T19:50:58.968Z,2.95
2022-12-19T19:55:00.587Z,3.01
2022-12-19T19:59:02.087Z,2.91
2022-12-19T20:03:08.532Z,3.03
2022-12-19T20:07:11.281Z,3.05
2022-12-19T20:11:13.628Z,2.97
2022-12-19T20:15:15.099Z,3.04
2022-12-19T20:19:16.648Z,3.26
2022-12-19T20:23:18.107Z,2.85
2022-12-19T20:27:19.545Z,2.80
2022-12-19T20:31:24.032Z,2.77
2022-12-19T20:35:25.575Z,2.80
2022-12-19T20:39:27.104Z,2.69
2022-12-19T20:43:28.808Z,2.75
2022-12-19T20:47:30.423Z,2.64
2022-12-19T20:51:32.037Z,2.63
2022-12-19T20:55:33.554Z,2.68
2022-12-19T20:59:35.079Z,2.63
2022-12-19T21:03:37.939Z,2.61
2022-12-19T21:07:39.586Z,2.48
2022-12-19T21:11:41.060Z,2.54
2022-12-19T21:15:42.752Z,2.49
2022-12-19T21:19:44.559Z,2.42
2022-12-19T21:23:46.394Z,2.42
2022-12-19T21:27:47.873Z,2.37
2022-12-19T21:31:50.571Z,2.30
2022-12-19T21:35:52.275Z,2.16
2022-12-19T21:39:53.691Z,2.38
2022-12-19T21:43:56.352Z,2.37
2022-12-19T21:47:57.818Z,2.39
2022-12-19T21:51:59.304Z,2.26
2022-12-19T21:56:06.896Z,2.28
2022-12-19T22:00:10.668Z,2.38
2022-12-19T22:04:20.288Z,2.32
2022-12-19T22:08:21.801Z,2.36
2022-12-19T22:12:23.399Z,2.33
2022-12-19T22:16:30.886Z,2.55
2022-12-19T22:20:32.504Z,2.52
2022-12-19T22:24:34.033Z,2.59
2022-12-19T22:28:39.289Z,2.64
2022-12-19T22:32:40.714Z,2.51
2022-12-19T22:36:43.395Z,2.63
2022-12-19T22:40:44.870Z,2.67
2022-12-19T22:44:46.329Z,2.61
2022-12-19T22:48:49.502Z,2.62
2022-12-19T22:52:50.994Z,2.43
2022-12-19T22:56:52.609Z,2.41
2022-12-19T23:00:54.102Z,2.48
2022-12-19T23:04:55.672Z,2.49
2022-12-19T23:08:57.767Z,2.58
2022-12-19T23:12:59.258Z,2.63
2022-12-19T23:17:00.828Z,2.59
2022-12-19T23:21:18.431Z,2.60
2022-12-19T23:25:19.897Z,2.59
2022-12-19T23:29:21.365Z,2.56
2022-12-19T23:33:23.118Z,2.70
2022-12-19T23:37:24.579Z,2.65
2022-12-19T23:41:26.062Z,2.62
2022-12-19T23:45:27.644Z,2.69
2022-12-19T23:49:29.201Z,2.72
2022-12-19T23:53:31.358Z,2.75
2022-12-19T23:57:32.878Z,2.77
